Time (yr/mo/day/hr) Wind Speed at 50 metres (Glencore Tower; km/hr) Wind Direction at 50 metres (Glencore Tower; degrees) Temperature (oC) SO2 Dispersion Conditions Mixing Height (m)
2019 03 20 13 15 198 5 Slightly unstable 1482
2019 03 20 14 21 208 6 Slightly unstable 1582
2019 03 20 15 21 209 6 Slightly unstable 1647
2019 03 20 16 20 218 5 Neutral 1525
2019 03 20 17 17 219 5 Slightly unstable 1075
2019 03 20 18 15 220 4 Neutral 1306
2019 03 20 19 13 219 4 Slightly stable 497
2019 03 20 20 10 214 3 Slightly stable 370
2019 03 20 21 12 214 3 Neutral 524
2019 03 20 22 15 214 2 Neutral 669
2019 03 20 23 13 216 1 Neutral 565
2019 03 21 00 12 217 1 Neutral 514
2019 03 21 01 11 221 0 Slightly stable 430
2019 03 21 02 9 212 -2 Slightly stable 282
2019 03 21 03 9 197 -1 Stable 247
2019 03 21 04 10 182 0 Slightly stable 330
2019 03 21 05 10 184 -1 Slightly stable 370
2019 03 21 06 11 185 -1 Slightly stable 374
2019 03 21 07 11 187 -1 Slightly stable 366
2019 03 21 08 10 193 -1 Neutral 494
2019 03 21 09 8 208 0 Slightly unstable 485
2019 03 21 10 9 215 1 Slightly unstable 521
2019 03 21 11 10 217 2 Moderately unstable 595
2019 03 21 12 11 220 3 Moderately unstable 697
2019 03 21 13 13 219 4 Neutral 773